createdAt,value
2019-02-26T00:00:26.877Z,16.73
2019-02-26T00:02:56.341Z,12.65
2019-02-26T00:05:26.051Z,15.78
2019-02-26T00:07:57.745Z,14.95
2019-02-26T00:10:26.823Z,19.27
2019-02-26T00:12:56.229Z,19.65
2019-02-26T00:15:24.662Z,13.08
2019-02-26T00:17:53.136Z,14.80
2019-02-26T00:20:21.585Z,18.25
2019-02-26T00:22:49.993Z,13.78
2019-02-26T00:25:20.373Z,22.65
2019-02-26T00:27:49.631Z,21.87
2019-02-26T00:30:19.108Z,15.18
2019-02-26T00:32:47.538Z,23.73
2019-02-26T00:35:18.235Z,11.78
2019-02-26T00:37:47.021Z,15.18
2019-02-26T00:40:17.977Z,14.93
2019-02-26T00:42:50.224Z,16.93
2019-02-26T00:45:16.700Z,13.88
2019-02-26T00:47:46.147Z,23.10
2019-02-26T00:50:16.684Z,18.82
2019-02-26T00:52:45.237Z,19.92
2019-02-26T00:55:13.634Z,15.38
2019-02-26T00:57:42.995Z,13.13
2019-02-26T01:00:16.373Z,13.05
2019-02-26T01:02:44.824Z,13.95
2019-02-26T01:05:15.687Z,12.28
2019-02-26T01:07:46.946Z,12.18
2019-02-26T01:10:16.457Z,15.63
2019-02-26T01:12:45.410Z,17.05
2019-02-26T01:15:19.025Z,17.95
2019-02-26T01:17:47.459Z,21.25
2019-02-26T01:20:20.068Z,13.15
2019-02-26T01:22:49.228Z,15.63
2019-02-26T01:25:18.580Z,13.00
2019-02-26T01:27:48.333Z,22.93
2019-02-26T01:30:21.124Z,21.97
2019-02-26T01:32:48.213Z,17.23
2019-02-26T01:35:16.722Z,15.20
2019-02-26T01:37:45.129Z,16.77
2019-02-26T01:40:16.396Z,15.18
2019-02-26T01:42:47.292Z,18.98
2019-02-26T01:45:14.574Z,16.23
2019-02-26T01:47:45.582Z,16.82
2019-02-26T01:50:15.989Z,14.83
2019-02-26T01:52:43.728Z,21.33
2019-02-26T01:55:12.491Z,17.12
2019-02-26T01:57:43.501Z,17.62
2019-02-26T02:00:19.046Z,17.32
2019-02-26T02:02:47.461Z,18.02
2019-02-26T02:05:15.962Z,18.67
2019-02-26T02:07:46.742Z,16.15
2019-02-26T02:10:16.162Z,18.32
2019-02-26T02:12:44.576Z,21.45
2019-02-26T02:15:18.857Z,24.80
2019-02-26T02:17:46.187Z,21.57
2019-02-26T02:20:19.405Z,27.62
2019-02-26T02:22:46.404Z,27.20
2019-02-26T02:25:14.942Z,28.15
2019-02-26T02:27:47.680Z,18.95
2019-02-26T02:30:22.350Z,17.55
2019-02-26T02:32:50.379Z,16.02
2019-02-26T02:35:18.955Z,19.87
2019-02-26T02:37:46.277Z,15.08
2019-02-26T02:40:14.736Z,15.93
2019-02-26T02:42:45.645Z,17.20
2019-02-26T02:45:17.200Z,15.75
2019-02-26T02:47:43.870Z,14.85
2019-02-26T02:50:15.182Z,14.85
2019-02-26T02:52:43.928Z,13.95
2019-02-26T02:55:13.868Z,17.67
2019-02-26T02:57:43.232Z,14.35
2019-02-26T03:00:15.983Z,17.20
2019-02-26T03:02:46.661Z,12.85
2019-02-26T03:05:14.558Z,14.75
2019-02-26T03:07:47.956Z,16.37
2019-02-26T03:10:15.150Z,15.13
2019-02-26T03:12:47.652Z,18.70
2019-02-26T03:15:16.282Z,20.37
2019-02-26T03:17:44.751Z,16.82
2019-02-26T03:20:14.617Z,16.85
2019-02-26T03:22:46.701Z,20.65
2019-02-26T03:25:17.773Z,13.72
2019-02-26T03:27:45.819Z,18.07
2019-02-26T03:30:32.095Z,18.00
2019-02-26T03:32:58.679Z,15.08
2019-02-26T03:35:23.483Z,15.53
2019-02-26T03:37:54.877Z,17.55
2019-02-26T03:40:26.362Z,14.60
2019-02-26T03:42:53.429Z,20.50
2019-02-26T03:45:24.829Z,14.93
2019-02-26T03:47:52.024Z,16.15
2019-02-26T03:50:20.434Z,18.82
2019-02-26T03:52:48.838Z,15.72
2019-02-26T03:55:18.884Z,20.60
2019-02-26T03:57:50.569Z,17.98
2019-02-26T04:00:19.851Z,16.62
2019-02-26T04:02:51.291Z,17.00
2019-02-26T04:05:18.801Z,18.05
2019-02-26T04:07:51.638Z,15.10
2019-02-26T04:10:17.496Z,18.12
2019-02-26T04:12:48.700Z,20.25
2019-02-26T04:15:16.979Z,16.70
2019-02-26T04:17:45.659Z,13.60
2019-02-26T04:20:15.429Z,16.07
2019-02-26T04:22:49.007Z,17.32
2019-02-26T04:25:36.284Z,19.10
2019-02-26T04:28:15.843Z,16.45
2019-02-26T04:30:56.332Z,17.25
2019-02-26T04:33:50.600Z,21.90
2019-02-26T04:36:22.419Z,18.45
2019-02-26T04:39:02.949Z,14.73
2019-02-26T04:41:34.433Z,18.77
2019-02-26T04:44:09.131Z,16.62
2019-02-26T04:46:40.608Z,18.40
2019-02-26T04:49:09.027Z,17.77
2019-02-26T04:51:41.572Z,16.05
2019-02-26T04:54:07.570Z,19.42
2019-02-26T04:56:39.067Z,14.63
2019-02-26T04:59:07.021Z,21.02
2019-02-26T05:01:36.264Z,16.65
2019-02-26T05:04:04.686Z,22.15
2019-02-26T05:06:33.163Z,17.52
2019-02-26T05:09:02.870Z,18.32
2019-02-26T05:11:35.761Z,14.35
2019-02-26T05:14:01.918Z,21.75
2019-02-26T05:16:32.655Z,13.03
2019-02-26T05:19:00.455Z,18.35
2019-02-26T05:21:30.528Z,17.07
2019-02-26T05:24:00.198Z,15.72
2019-02-26T05:26:30.241Z,16.42
2019-02-26T05:28:59.010Z,18.02
2019-02-26T05:31:29.632Z,22.85
2019-02-26T05:34:00.075Z,21.68
2019-02-26T05:36:28.419Z,17.42
2019-02-26T05:39:00.345Z,18.50
2019-02-26T05:41:27.924Z,19.62
2019-02-26T05:43:58.292Z,17.45
2019-02-26T05:46:27.512Z,17.37
2019-02-26T05:48:56.593Z,18.75
2019-02-26T05:51:27.443Z,15.75
2019-02-26T05:53:55.511Z,16.90
2019-02-26T05:56:24.021Z,18.42
2019-02-26T05:58:52.469Z,18.05
2019-02-26T06:01:22.554Z,22.05
2019-02-26T06:03:53.220Z,19.50
2019-02-26T06:06:21.678Z,16.23
2019-02-26T06:08:50.140Z,14.25
2019-02-26T06:11:19.539Z,24.55
2019-02-26T06:13:48.029Z,22.10
2019-02-26T06:16:16.468Z,20.23
2019-02-26T06:18:46.394Z,16.80
2019-02-26T06:21:16.545Z,17.82
2019-02-26T06:23:53.423Z,18.00
2019-02-26T06:26:22.012Z,21.00
2019-02-26T06:28:52.972Z,27.85
2019-02-26T06:31:24.642Z,30.90
2019-02-26T06:33:52.730Z,21.45
2019-02-26T06:36:23.351Z,21.33
2019-02-26T06:38:52.143Z,22.30
2019-02-26T06:41:21.733Z,20.72
2019-02-26T06:43:50.812Z,19.67
2019-02-26T06:46:20.401Z,18.05
2019-02-26T06:48:48.867Z,19.12
2019-02-26T06:51:18.986Z,16.10
2019-02-26T06:53:49.391Z,17.07
2019-02-26T06:56:17.916Z,19.80
2019-02-26T06:58:47.469Z,25.72
2019-02-26T07:01:16.671Z,19.42
2019-02-26T07:03:46.172Z,20.32
2019-02-26T07:06:18.425Z,21.15
2019-02-26T07:08:47.201Z,20.55
2019-02-26T07:11:15.708Z,21.77
2019-02-26T07:13:46.408Z,20.62
2019-02-26T07:16:14.244Z,20.80
2019-02-26T07:18:42.685Z,27.48
2019-02-26T07:21:11.109Z,23.42
2019-02-26T07:23:40.032Z,19.05
2019-02-26T07:26:08.613Z,18.85
2019-02-26T07:28:37.659Z,19.23
2019-02-26T07:31:07.943Z,16.12
2019-02-26T07:33:39.467Z,24.57
2019-02-26T07:36:07.552Z,29.70
2019-02-26T07:38:41.245Z,29.30
2019-02-26T07:41:06.878Z,19.12
2019-02-26T07:43:38.739Z,16.77
2019-02-26T07:46:05.774Z,26.07
2019-02-26T07:48:34.335Z,35.60
2019-02-26T07:51:02.743Z,23.60
2019-02-26T07:53:31.324Z,24.43
2019-02-26T07:56:01.785Z,23.15
2019-02-26T07:58:31.426Z,15.23
2019-02-26T08:01:00.580Z,26.42
2019-02-26T08:03:29.449Z,17.87
2019-02-26T08:05:59.510Z,26.12
2019-02-26T08:08:28.415Z,21.95
2019-02-26T08:10:56.822Z,18.98
2019-02-26T08:13:28.526Z,30.08
2019-02-26T08:15:57.657Z,27.50
2019-02-26T08:18:25.525Z,18.23
2019-02-26T08:20:56.885Z,34.95
2019-02-26T08:23:26.247Z,17.50
2019-02-26T08:25:55.488Z,13.55
2019-02-26T08:28:24.897Z,21.23
2019-02-26T08:30:55.261Z,13.87
2019-02-26T08:33:23.701Z,14.13
2019-02-26T08:35:55.489Z,12.93
2019-02-26T08:38:22.388Z,14.53
2019-02-26T08:40:50.923Z,15.77
2019-02-26T08:43:19.364Z,21.23
2019-02-26T08:45:47.924Z,18.70
2019-02-26T08:48:17.345Z,41.30
2019-02-26T08:50:46.875Z,38.03
2019-02-26T08:53:15.277Z,56.37
2019-02-26T08:55:44.082Z,26.07
2019-02-26T08:58:12.630Z,20.77
2019-02-26T09:00:41.141Z,60.90
2019-02-26T09:03:10.745Z,43.77
2019-02-26T09:05:39.763Z,13.40
2019-02-26T09:08:09.178Z,16.20
2019-02-26T09:10:39.511Z,12.53
2019-02-26T09:13:09.383Z,11.77
2019-02-26T09:15:40.838Z,13.50
2019-02-26T09:18:08.859Z,10.17
2019-02-26T09:20:37.279Z,20.70
2019-02-26T09:23:05.757Z,15.93
2019-02-26T09:25:34.186Z,41.03
2019-02-26T09:28:02.639Z,28.63
2019-02-26T09:30:33.412Z,12.50
2019-02-26T09:33:03.168Z,20.10
2019-02-26T09:35:33.088Z,15.30
2019-02-26T09:38:01.688Z,16.87
2019-02-26T09:40:34.101Z,16.23
2019-02-26T09:43:00.290Z,15.37
2019-02-26T09:45:30.119Z,12.10
2019-02-26T09:48:00.982Z,14.00
2019-02-26T09:50:28.865Z,11.00
2019-02-26T09:52:59.098Z,11.50
2019-02-26T09:55:27.431Z,12.60
2019-02-26T09:57:55.843Z,8.00
2019-02-26T10:00:27.204Z,10.63
2019-02-26T10:02:54.537Z,10.47
2019-02-26T10:05:23.218Z,9.70
2019-02-26T10:07:54.370Z,12.10
2019-02-26T10:10:22.984Z,10.53
2019-02-26T10:12:53.855Z,14.17
2019-02-26T10:15:21.557Z,8.47
2019-02-26T10:17:50.438Z,9.33
2019-02-26T10:20:23.292Z,11.87
2019-02-26T10:22:53.149Z,9.10
2019-02-26T10:25:23.352Z,8.67
2019-02-26T10:27:51.275Z,10.13
2019-02-26T10:30:20.820Z,12.57
2019-02-26T10:32:49.410Z,13.33
2019-02-26T10:35:32.613Z,9.30
2019-02-26T10:38:03.617Z,13.70
2019-02-26T10:40:35.569Z,10.67
2019-02-26T10:43:00.978Z,11.47
2019-02-26T10:45:30.485Z,11.33
2019-02-26T10:48:01.427Z,13.47
2019-02-26T10:50:31.628Z,11.93
2019-02-26T10:53:06.943Z,10.90
2019-02-26T10:55:35.327Z,12.73
2019-02-26T10:58:06.344Z,12.30
2019-02-26T11:00:34.103Z,19.50
2019-02-26T11:03:00.668Z,26.73
2019-02-26T11:05:29.421Z,23.47
2019-02-26T11:07:59.785Z,17.33
2019-02-26T11:10:28.050Z,30.30
2019-02-26T11:12:59.302Z,36.97
2019-02-26T11:15:29.786Z,34.27
2019-02-26T11:17:57.150Z,77.27
2019-02-26T11:20:28.365Z,65.37
2019-02-26T11:22:55.749Z,51.27
2019-02-26T11:25:26.512Z,57.33
2019-02-26T11:27:54.371Z,46.47
2019-02-26T11:30:26.076Z,8.57
2019-02-26T11:32:58.726Z,8.23
2019-02-26T11:35:25.211Z,62.67
2019-02-26T11:37:55.365Z,1999.90
2019-02-26T11:40:27.651Z,219.23
2019-02-26T11:42:55.611Z,1435.03
2019-02-26T11:45:24.777Z,1371.03
2019-02-26T11:47:55.161Z,184.33
2019-02-26T11:50:27.930Z,77.87
2019-02-26T11:52:55.616Z,1108.67
2019-02-26T11:55:26.155Z,161.80
2019-02-26T11:57:54.249Z,582.57
2019-02-26T12:00:47.659Z,1999.90
2019-02-26T12:03:15.357Z,648.87
2019-02-26T12:05:43.777Z,1305.97
2019-02-26T12:08:31.554Z,1145.87
2019-02-26T12:11:03.509Z,1297.73
2019-02-26T12:13:30.161Z,1289.07
2019-02-26T12:15:58.625Z,1355.37
2019-02-26T12:18:27.381Z,1999.90
2019-02-26T12:20:55.813Z,967.13
2019-02-26T12:23:24.297Z,1080.00
2019-02-26T12:25:55.351Z,1999.90
2019-02-26T12:28:25.177Z,1999.90
2019-02-26T12:30:53.167Z,1999.90
2019-02-26T12:33:21.593Z,1999.90
2019-02-26T12:35:50.048Z,1999.90
2019-02-26T12:38:21.446Z,1999.90
2019-02-26T12:40:50.769Z,1999.90
2019-02-26T12:43:19.354Z,1999.90
2019-02-26T12:45:48.109Z,862.40
2019-02-26T12:48:19.727Z,1016.37
2019-02-26T12:50:47.086Z,997.63
2019-02-26T12:53:17.976Z,987.57
2019-02-26T12:55:45.657Z,1061.33
2019-02-26T12:58:17.050Z,1183.47
2019-02-26T13:00:44.907Z,1999.90
2019-02-26T13:03:15.980Z,1458.93
2019-02-26T13:05:45.599Z,1999.90
2019-02-26T13:08:17.208Z,1999.90
2019-02-26T13:10:49.558Z,1080.63
2019-02-26T13:13:14.051Z,1999.90
2019-02-26T13:15:42.477Z,1999.90
2019-02-26T13:18:10.904Z,885.33
2019-02-26T13:20:39.332Z,1999.90
2019-02-26T13:23:16.982Z,1999.90
2019-02-26T13:25:37.913Z,1999.90
2019-02-26T13:28:06.380Z,1999.90
2019-02-26T13:30:34.839Z,1520.63
2019-02-26T13:33:05.161Z,1430.00
2019-02-26T13:35:33.534Z,1999.90
2019-02-26T13:38:03.389Z,1999.90
2019-02-26T13:40:38.284Z,639.87
2019-02-26T13:45:30.657Z,807.80
2019-02-26T13:48:01.304Z,718.00
2019-02-26T13:50:30.705Z,1999.90
2019-02-26T13:52:59.130Z,630.07
2019-02-26T13:55:27.648Z,913.00
2019-02-26T13:57:56.075Z,780.00
2019-02-26T14:00:26.604Z,750.83
2019-02-26T14:02:54.858Z,829.13
2019-02-26T14:05:23.378Z,864.93
2019-02-26T14:07:53.197Z,903.20
2019-02-26T14:10:22.709Z,836.47
2019-02-26T14:12:51.425Z,871.67
2019-02-26T14:15:30.933Z,950.67
2019-02-26T14:17:59.354Z,800.10
2019-02-26T14:20:27.810Z,1573.00
2019-02-26T14:22:56.229Z,1519.77
2019-02-26T14:25:24.677Z,1463.57
2019-02-26T14:27:53.099Z,1999.90
2019-02-26T14:30:22.581Z,463.50
2019-02-26T14:32:51.084Z,699.90
2019-02-26T14:35:19.673Z,785.03
2019-02-26T14:37:48.170Z,911.67
2019-02-26T14:40:20.437Z,860.63
2019-02-26T14:42:48.851Z,879.17
2019-02-26T14:45:25.091Z,881.57
2019-02-26T14:47:53.565Z,845.20
2019-02-26T14:50:23.153Z,177.23
2019-02-26T14:52:51.717Z,183.80
2019-02-26T14:55:20.578Z,161.57
2019-02-26T14:57:49.536Z,204.47
2019-02-26T15:00:45.819Z,173.90
2019-02-26T15:03:14.253Z,285.30
2019-02-26T15:05:42.799Z,266.73
2019-02-26T15:08:11.230Z,322.03
2019-02-26T15:10:39.937Z,377.00
2019-02-26T15:13:08.386Z,675.73
2019-02-26T15:15:36.850Z,809.57
2019-02-26T15:18:05.401Z,612.07
2019-02-26T15:20:33.916Z,658.13
2019-02-26T15:23:02.508Z,609.57
2019-02-26T15:25:31.906Z,720.37
2019-02-26T15:28:04.924Z,733.00
2019-02-26T15:30:30.583Z,766.93
2019-02-26T15:32:59.030Z,847.53
2019-02-26T15:35:27.719Z,844.53
2019-02-26T15:37:56.179Z,855.03
2019-02-26T15:40:24.970Z,916.83
2019-02-26T15:42:56.198Z,1556.93
2019-02-26T15:45:29.019Z,1999.90
2019-02-26T15:47:57.943Z,1999.90
2019-02-26T15:50:26.449Z,1999.90
2019-02-26T15:52:54.897Z,1999.90
2019-02-26T15:55:28.887Z,1999.90
2019-02-26T15:57:57.731Z,392.33
2019-02-26T16:00:27.766Z,742.97
2019-02-26T16:02:59.064Z,782.50
2019-02-26T16:05:32.755Z,1999.90
2019-02-26T16:08:01.271Z,295.13
2019-02-26T16:10:29.777Z,284.20
2019-02-26T16:13:04.551Z,1037.73
2019-02-26T16:15:34.774Z,760.97
2019-02-26T16:18:03.380Z,544.53
2019-02-26T16:20:32.144Z,772.30
2019-02-26T16:23:00.581Z,1046.90
2019-02-26T16:25:29.389Z,818.53
2019-02-26T16:27:57.965Z,71.47
2019-02-26T16:30:29.911Z,1129.80
2019-02-26T16:32:58.493Z,951.83
2019-02-26T16:35:27.450Z,175.63
2019-02-26T16:37:55.889Z,141.57
2019-02-26T16:40:24.404Z,51.13
2019-02-26T16:42:53.082Z,78.50
2019-02-26T16:45:24.476Z,129.27
2019-02-26T16:47:52.933Z,137.67
2019-02-26T16:50:23.533Z,78.07
2019-02-26T16:52:51.949Z,119.87
2019-02-26T16:55:21.426Z,114.50
2019-02-26T16:57:49.926Z,143.60
2019-02-26T17:00:27.625Z,69.83
2019-02-26T17:02:59.869Z,36.60
2019-02-26T17:05:26.655Z,44.83
2019-02-26T17:07:55.813Z,53.53
2019-02-26T17:10:29.134Z,102.77
2019-02-26T17:13:01.807Z,10.83
2019-02-26T17:15:30.682Z,43.33
2019-02-26T17:17:59.166Z,61.13
2019-02-26T17:20:27.661Z,52.73
2019-02-26T17:22:57.369Z,51.03
2019-02-26T17:25:28.624Z,51.17
2019-02-26T17:27:56.093Z,56.23
2019-02-26T17:30:24.794Z,50.23
2019-02-26T17:32:53.473Z,54.43
2019-02-26T17:35:22.277Z,37.33
2019-02-26T17:37:51.231Z,23.70
2019-02-26T17:40:23.978Z,24.67
2019-02-26T17:42:54.278Z,17.03
2019-02-26T17:45:34.878Z,18.83
2019-02-26T17:48:04.218Z,18.37
2019-02-26T17:50:35.277Z,16.87
2019-02-26T17:53:03.886Z,15.93
2019-02-26T17:55:32.620Z,15.60
2019-02-26T17:58:01.130Z,12.80
2019-02-26T18:00:31.202Z,20.93
2019-02-26T18:02:59.676Z,21.60
2019-02-26T18:05:28.069Z,19.53
2019-02-26T18:07:56.649Z,10.60
2019-02-26T18:10:27.957Z,13.63
2019-02-26T18:12:56.813Z,16.73
2019-02-26T18:15:25.319Z,13.13
2019-02-26T18:17:54.097Z,13.17
2019-02-26T18:20:27.719Z,20.63
2019-02-26T18:22:54.049Z,15.70
2019-02-26T18:25:23.420Z,17.60
2019-02-26T18:27:52.064Z,20.83
2019-02-26T18:30:27.779Z,19.77
2019-02-26T18:32:58.814Z,22.60
2019-02-26T18:35:26.407Z,16.83
2019-02-26T18:37:54.921Z,13.73
2019-02-26T18:40:27.649Z,13.33
2019-02-26T18:42:53.975Z,18.20
2019-02-26T18:45:27.875Z,15.20
2019-02-26T18:47:55.413Z,13.87
2019-02-26T18:50:25.803Z,11.87
2019-02-26T18:52:54.223Z,15.00
2019-02-26T18:55:22.803Z,11.13
2019-02-26T18:57:51.343Z,17.47
2019-02-26T19:00:25.656Z,14.75
2019-02-26T19:02:52.602Z,19.42
2019-02-26T19:05:21.588Z,25.40
2019-02-26T19:07:50.460Z,21.52
2019-02-26T19:10:20.910Z,21.00
2019-02-26T19:12:49.723Z,15.23
2019-02-26T19:15:32.393Z,20.10
2019-02-26T19:18:02.737Z,11.83
2019-02-26T19:20:36.204Z,10.93
2019-02-26T19:23:04.741Z,13.45
2019-02-26T19:25:33.162Z,9.10
2019-02-26T19:28:01.649Z,17.25
2019-02-26T19:30:30.057Z,17.70
2019-02-26T19:32:58.532Z,17.48
2019-02-26T19:35:27.030Z,22.13
2019-02-26T19:37:58.145Z,15.13
2019-02-26T19:40:38.720Z,16.05
2019-02-26T19:43:05.431Z,9.23
2019-02-26T19:45:33.836Z,14.98
2019-02-26T19:48:02.341Z,11.50
2019-02-26T19:50:30.866Z,15.03
2019-02-26T19:53:02.211Z,13.05
2019-02-26T19:55:32.252Z,14.50
2019-02-26T19:58:03.055Z,16.57
2019-02-26T20:00:30.881Z,12.00
2019-02-26T20:02:59.442Z,13.20
2019-02-26T20:05:27.850Z,21.48
2019-02-26T20:07:56.330Z,21.27
2019-02-26T20:10:24.745Z,17.17
2019-02-26T20:12:54.052Z,15.08
2019-02-26T20:15:22.707Z,12.20
2019-02-26T20:17:51.191Z,16.67
2019-02-26T20:20:20.938Z,16.42
2019-02-26T20:22:49.414Z,12.35
2019-02-26T20:25:21.520Z,13.58
2019-02-26T20:27:49.991Z,17.90
2019-02-26T20:30:23.067Z,10.88
2019-02-26T20:32:51.694Z,14.87
2019-02-26T20:35:20.119Z,15.95
2019-02-26T20:37:48.630Z,16.25
2019-02-26T20:40:24.568Z,16.23
2019-02-26T20:42:53.116Z,10.53
2019-02-26T20:45:22.781Z,14.07
2019-02-26T20:47:51.434Z,20.20
2019-02-26T20:50:21.428Z,14.85
2019-02-26T20:52:50.332Z,15.15
2019-02-26T20:55:22.843Z,19.75
2019-02-26T20:57:51.388Z,23.60
2019-02-26T21:00:24.877Z,16.15
2019-02-26T21:02:50.713Z,18.23
2019-02-26T21:05:19.181Z,22.30
2019-02-26T21:07:49.453Z,16.55
2019-02-26T21:10:21.551Z,17.70
2019-02-26T21:12:49.969Z,14.70
2019-02-26T21:15:21.507Z,13.60
2019-02-26T21:17:49.941Z,18.32
2019-02-26T21:20:38.781Z,17.05
2019-02-26T21:23:08.654Z,14.20
2019-02-26T21:25:37.070Z,16.42
2019-02-26T21:28:05.533Z,13.88
2019-02-26T21:30:33.991Z,8.90
2019-02-26T21:33:02.399Z,15.60
2019-02-26T21:35:31.082Z,11.88
2019-02-26T21:37:59.485Z,14.15
2019-02-26T21:40:27.917Z,13.08
2019-02-26T21:42:56.316Z,11.15
2019-02-26T21:45:24.740Z,24.85
2019-02-26T21:47:53.245Z,14.87
2019-02-26T21:50:22.755Z,15.15
2019-02-26T21:52:59.505Z,14.15
2019-02-26T21:55:21.719Z,32.42
2019-02-26T21:57:54.528Z,16.65
2019-02-26T22:00:21.773Z,17.57
2019-02-26T22:02:52.422Z,15.72
2019-02-26T22:05:20.389Z,19.82
2019-02-26T22:07:51.996Z,16.05
2019-02-26T22:10:21.895Z,17.40
2019-02-26T22:12:50.904Z,22.95
2019-02-26T22:15:19.635Z,16.85
2019-02-26T22:17:48.054Z,13.70
2019-02-26T22:20:32.985Z,15.93
2019-02-26T22:22:51.314Z,19.32
2019-02-26T22:25:19.818Z,20.15
2019-02-26T22:27:48.313Z,17.85
2019-02-26T22:30:21.388Z,19.32
2019-02-26T22:32:48.255Z,16.97
2019-02-26T22:35:17.247Z,18.85
2019-02-26T22:37:45.811Z,19.80
2019-02-26T22:40:14.973Z,21.65
2019-02-26T22:42:43.419Z,21.35
2019-02-26T22:45:14.426Z,19.48
2019-02-26T22:47:44.375Z,19.85
2019-02-26T22:50:16.131Z,18.55
2019-02-26T22:52:45.224Z,20.12
2019-02-26T22:55:16.591Z,19.40
2019-02-26T22:57:45.355Z,20.68
2019-02-26T23:00:54.975Z,20.57
2019-02-26T23:03:23.787Z,20.50
2019-02-26T23:05:52.526Z,21.35
2019-02-26T23:08:20.947Z,20.37
2019-02-26T23:10:51.204Z,19.40
2019-02-26T23:13:25.365Z,19.73
2019-02-26T23:15:53.800Z,20.32
2019-02-26T23:18:22.205Z,21.33
2019-02-26T23:20:50.824Z,29.37
2019-02-26T23:23:21.640Z,15.78
2019-02-26T23:25:49.699Z,19.82
2019-02-26T23:28:21.644Z,19.92
2019-02-26T23:30:48.623Z,17.80
2019-02-26T23:33:17.098Z,17.48
2019-02-26T23:35:45.643Z,15.60
2019-02-26T23:38:14.038Z,17.50
2019-02-26T23:40:42.508Z,21.75
2019-02-26T23:43:11.990Z,16.87
2019-02-26T23:45:40.957Z,17.42
2019-02-26T23:48:09.357Z,16.55
2019-02-26T23:50:37.886Z,18.80
2019-02-26T23:53:06.353Z,16.70
2019-02-26T23:55:34.808Z,20.08
2019-02-26T23:58:03.228Z,20.10
